Saturday, November 18, 2017, 11:56 PM EST
Back to Local

KRKD, Rockland, Knox County Regional Airport

Location: Owls Head, ME, United States Lat: 44.067
Local Time: 11:56 PM EST ( 4:56 GMT) Lon: -69.1
Time Zone: US/Eastern Elev: 55 ft

Show me the last for .
Show Decoded

2017-11-18 23:27 METAR KRKD 190427Z AUTO 15012G19KT 7SM -RA BKN009 BKN019 OVC044 10/09 A2954 RMK
                 AO2 CIG 007V014 P0002 =
2017-11-18 23:06 METAR KRKD 190406Z AUTO 16014G19KT 10SM -RA SCT007 BKN015 OVC044 10/09 A2956 RMK
                 AO2 PRESFR P0001 =
2017-11-18 22:56 METAR KRKD 190356Z AUTO 16012G20KT 8SM -RA BKN007 OVC011 09/08 A2957 RMK AO2 CIG
                 006V010 SLP014 P0001 T00940083 =
2017-11-18 22:27 METAR KRKD 190327Z AUTO 16012G17KT 10SM -RA BKN011 BKN022 OVC050 09/08 A2959 RMK
                 AO2 P0000 =
2017-11-18 21:56 METAR KRKD 190256Z AUTO 15010G21KT 10SM -RA FEW015 OVC026 09/07 A2961 RMK AO2
                 RAE34B56 SLP029 P0000 60000 T00890072 58031 =
2017-11-18 21:18 METAR KRKD 190218Z AUTO 15008G15KT 10SM -RA FEW020 BKN038 OVC065 08/06 A2964 RMK
                 AO2 P0000 =
2017-11-18 20:56 METAR KRKD 190156Z AUTO 17011KT 10SM -RA BKN020 BKN027 OVC060 08/05 A2966 RMK
                 AO2 SLP046 P0000 T00780050 =
2017-11-18 20:48 METAR KRKD 190148Z AUTO 17009G16KT 10SM -RA SCT022 BKN027 OVC065 08/05 A2967 RMK
                 AO2 P0000 =
2017-11-18 19:56 METAR KRKD 190056Z AUTO 19007KT 10SM -RA OVC065 08/03 A2970 RMK AO2 RAB50 SLP060
                 P0000 T00780028 =
2017-11-18 18:56 METAR KRKD 182356Z AUTO 19006KT 10SM BKN075 OVC100 07/M01 A2973 RMK AO2 SLP068
                 T00721006 10072 20033 58020 =
2017-11-18 17:56 METAR KRKD 182256Z AUTO 21008KT 10SM OVC110 06/00 A2975 RMK AO2 SLP075 T00560000
                 =
2017-11-18 16:56 METAR KRKD 182156Z AUTO 00000KT 10SM FEW120 04/M03 A2977 RMK AO2 SLP082
                 T00441033 =
2017-11-18 15:56 METAR KRKD 182056Z AUTO 18003KT 10SM CLR 03/M05 A2979 RMK AO2 SLP088 T00331050
                 56016 =
2017-11-18 14:56 METAR KRKD 181956Z AUTO 13005KT 10SM CLR 04/M06 A2979 RMK AO2 SLP088 T00391061 =
2017-11-18 13:56 METAR KRKD 181856Z AUTO 18003KT 10SM CLR 03/M07 A2982 RMK AO2 SLP099 T00331067 =
2017-11-18 12:56 METAR KRKD 181756Z AUTO 12007KT 10SM CLR 03/M07 A2983 RMK AO2 SLP105 T00331072
                 10044 21050 57028 =
2017-11-18 11:56 METAR KRKD 181656Z AUTO 13003KT 10SM CLR 04/M10 A2986 RMK AO2 SLP114 T00441100 =
2017-11-18 10:56 METAR KRKD 181556Z AUTO 01004KT 10SM CLR 03/M11 A2989 RMK AO2 SLP123 T00281111 =
2017-11-18 09:56 METAR KRKD 181456Z AUTO 28009KT 10SM CLR 01/M09 A2992 RMK AO2 SLP132 T00111094
                 58005 FZRANO =
2017-11-18 08:56 METAR KRKD 181356Z AUTO 29008KT 10SM CLR M01/M08 A2992 RMK AO2 SLP133 T10061083
                 FZRANO =
2017-11-18 07:56 METAR KRKD 181256Z AUTO 26008KT 10SM CLR M03/M08 A2995 RMK AO2 SLP142 T10281083
                 FZRANO =
2017-11-18 06:56 METAR KRKD 181156Z AUTO 26006KT 10SM CLR M04/M09 A2993 RMK AO2 SLP137 T10441094
                 11028 21056 53010 FZRANO =
2017-11-18 05:56 METAR KRKD 181056Z AUTO 00000KT 10SM CLR M04/M09 A2992 RMK AO2 SLP133 T10441094
                 FZRANO =
2017-11-18 04:56 METAR KRKD 180956Z AUTO 00000KT 10SM CLR M03/M09 A2990 RMK AO2 SLP127 T10331094
                 FZRANO =
2017-11-18 03:56 METAR KRKD 180856Z AUTO 29013KT 10SM CLR M03/M09 A2990 RMK AO2 SLP127 T10281094
                 51001 FZRANO =
2017-11-18 02:56 METAR KRKD 180756Z AUTO 29010KT 10SM CLR M03/M09 A2990 RMK AO2 SLP127 T10281089
                 FZRANO =
2017-11-18 01:56 METAR KRKD 180656Z AUTO 27016KT 10SM CLR M03/M08 A2990 RMK AO2 SLP127 T10281083
                 FZRANO =
2017-11-18 00:56 METAR KRKD 180556Z AUTO 28009KT 10SM CLR M03/M08 A2990 RMK AO2 SLP126 T10281078
                 11011 21028 51008 FZRANO =

Support USWX by starting your Amazon purchase here.